createdAt,value
2022-09-18T00:01:01.212Z,21.58
2022-09-18T00:04:06.081Z,21.53
2022-09-18T00:07:08.451Z,21.63
2022-09-18T00:10:10.561Z,21.59
2022-09-18T00:13:14.993Z,21.63
2022-09-18T00:16:19.382Z,21.62
2022-09-18T00:19:21.525Z,21.58
2022-09-18T00:22:23.788Z,21.61
2022-09-18T00:25:26.137Z,21.61
2022-09-18T00:28:28.530Z,21.61
2022-09-18T00:31:33.821Z,21.60
2022-09-18T00:34:36.180Z,21.57
2022-09-18T00:37:39.373Z,21.59
2022-09-18T00:40:41.647Z,21.60
2022-09-18T00:43:44.438Z,21.58
2022-09-18T00:46:46.717Z,21.59
2022-09-18T00:49:57.514Z,21.62
2022-09-18T00:53:07.896Z,21.61
2022-09-18T00:56:15.335Z,21.61
2022-09-18T00:59:22.551Z,21.57
2022-09-18T01:02:24.847Z,21.58
2022-09-18T01:05:46.575Z,21.58
2022-09-18T01:08:54.664Z,21.59
2022-09-18T01:12:06.957Z,21.59
2022-09-18T01:15:35.146Z,21.60
2022-09-18T01:18:52.077Z,21.59
2022-09-18T01:22:12.447Z,21.59
2022-09-18T01:25:41.288Z,21.60
2022-09-18T01:29:08.805Z,21.55
2022-09-18T01:32:32.481Z,21.45
2022-09-18T01:35:42.006Z,21.49
2022-09-18T01:38:57.489Z,21.50
2022-09-18T01:42:03.323Z,21.49
2022-09-18T01:45:10.912Z,21.49
2022-09-18T01:48:26.341Z,21.35
2022-09-18T01:51:48.409Z,21.53
2022-09-18T01:54:55.678Z,21.52
2022-09-18T01:58:07.988Z,21.51
2022-09-18T02:01:17.259Z,21.51
2022-09-18T02:04:25.742Z,21.47
2022-09-18T02:07:42.489Z,21.49
2022-09-18T02:11:10.018Z,21.50
2022-09-18T02:14:18.806Z,21.50
2022-09-18T02:18:00.001Z,21.44
2022-09-18T02:21:17.581Z,21.41
2022-09-18T02:24:24.414Z,21.37
2022-09-18T02:27:28.179Z,21.40
2022-09-18T02:30:32.157Z,21.37
2022-09-18T02:33:36.760Z,21.44
2022-09-18T02:37:00.648Z,21.43
2022-09-18T02:40:21.178Z,21.44
2022-09-18T02:43:56.075Z,21.43
2022-09-18T02:47:25.955Z,21.34
2022-09-18T02:50:36.795Z,21.42
2022-09-18T02:53:46.949Z,21.43
2022-09-18T02:56:51.777Z,21.50
2022-09-18T02:59:56.627Z,21.50
2022-09-18T03:02:59.884Z,21.53
2022-09-18T03:06:09.143Z,21.56
2022-09-18T03:09:12.363Z,21.54
2022-09-18T03:12:14.809Z,21.56
2022-09-18T03:15:22.415Z,21.54
2022-09-18T03:18:26.714Z,21.53
2022-09-18T03:21:32.579Z,21.58
2022-09-18T03:24:34.665Z,21.57
2022-09-18T03:27:38.153Z,21.59
2022-09-18T03:30:41.497Z,21.58
2022-09-18T03:33:43.519Z,21.56
2022-09-18T03:36:47.381Z,21.59
2022-09-18T03:39:50.493Z,21.58
2022-09-18T03:42:53.257Z,21.59
2022-09-18T03:45:55.292Z,21.58
2022-09-18T03:48:57.277Z,21.58
2022-09-18T03:52:01.573Z,21.56
2022-09-18T03:55:07.935Z,21.55
2022-09-18T03:58:33.249Z,21.49
2022-09-18T04:01:41.511Z,21.53
2022-09-18T04:05:01.887Z,21.52
2022-09-18T04:08:22.421Z,21.51
2022-09-18T04:11:44.688Z,21.48
2022-09-18T04:14:47.339Z,21.38
2022-09-18T04:17:49.883Z,21.46
2022-09-18T04:20:51.860Z,21.47
2022-09-18T04:23:53.878Z,21.48
2022-09-18T04:26:55.953Z,21.44
2022-09-18T04:30:00.869Z,21.43
2022-09-18T04:33:03.985Z,21.44
2022-09-18T04:36:06.223Z,21.40
2022-09-18T04:39:09.751Z,21.33
2022-09-18T04:42:11.846Z,21.37
2022-09-18T04:45:14.368Z,21.37
2022-09-18T04:48:18.044Z,21.41
2022-09-18T04:51:21.165Z,21.38
2022-09-18T04:54:24.364Z,21.42
2022-09-18T04:57:27.335Z,21.46
2022-09-18T05:00:29.457Z,21.43
2022-09-18T05:03:34.621Z,21.43
2022-09-18T05:06:36.741Z,21.50
2022-09-18T05:09:39.363Z,21.50
2022-09-18T05:12:45.338Z,21.46
2022-09-18T05:15:48.199Z,21.38
2022-09-18T05:18:52.208Z,21.40
2022-09-18T05:21:54.274Z,21.44
2022-09-18T05:24:56.326Z,21.48
2022-09-18T05:28:00.571Z,21.39
2022-09-18T05:31:18.888Z,21.30
2022-09-18T05:34:22.776Z,21.24
2022-09-18T05:37:24.867Z,21.21
2022-09-18T05:40:34.070Z,21.29
2022-09-18T05:43:36.616Z,21.14
2022-09-18T05:46:43.207Z,21.18
2022-09-18T05:49:45.555Z,21.05
2022-09-18T05:52:48.396Z,21.09
2022-09-18T05:55:51.738Z,21.11
2022-09-18T05:58:54.464Z,21.20
2022-09-18T06:01:56.616Z,21.27
2022-09-18T06:05:10.485Z,21.30
2022-09-18T06:08:13.360Z,21.32
2022-09-18T06:11:15.356Z,21.33
2022-09-18T06:14:17.358Z,21.31
2022-09-18T06:17:21.505Z,21.34
2022-09-18T06:20:27.194Z,21.35
2022-09-18T06:23:30.149Z,21.36
2022-09-18T06:26:38.003Z,21.35
2022-09-18T06:29:41.350Z,21.29
2022-09-18T06:32:46.327Z,21.16
2022-09-18T06:35:49.325Z,20.90
2022-09-18T06:38:59.445Z,20.96
2022-09-18T06:42:01.712Z,20.93
2022-09-18T06:45:22.155Z,20.96
2022-09-18T06:48:26.336Z,20.98
2022-09-18T06:51:29.602Z,20.99
2022-09-18T06:54:40.355Z,20.95
2022-09-18T06:57:42.684Z,21.02
2022-09-18T07:00:47.549Z,21.04
2022-09-18T07:03:57.010Z,21.10
2022-09-18T07:07:03.831Z,21.09
2022-09-18T07:10:09.123Z,21.08
2022-09-18T07:13:18.549Z,21.12
2022-09-18T07:16:21.578Z,21.25
2022-09-18T07:19:24.032Z,21.33
2022-09-18T07:22:26.839Z,21.38
2022-09-18T07:25:31.471Z,21.42
2022-09-18T07:28:34.053Z,21.49
2022-09-18T07:31:45.813Z,21.55
2022-09-18T07:34:48.874Z,21.54
2022-09-18T07:37:59.511Z,21.54
2022-09-18T07:41:13.787Z,21.55
2022-09-18T07:44:19.191Z,21.56
2022-09-18T07:47:22.088Z,21.53
2022-09-18T07:50:24.202Z,21.60
2022-09-18T07:53:29.603Z,21.58
2022-09-18T07:56:34.390Z,21.67
2022-09-18T07:59:37.319Z,21.64
2022-09-18T08:02:40.857Z,21.54
2022-09-18T08:05:43.799Z,21.47
2022-09-18T08:08:46.844Z,21.37
2022-09-18T08:11:54.261Z,21.32
2022-09-18T08:15:06.382Z,21.28
2022-09-18T08:18:26.025Z,21.21
2022-09-18T08:21:35.413Z,21.27
2022-09-18T08:24:42.987Z,21.21
2022-09-18T08:27:45.533Z,21.07
2022-09-18T08:30:48.582Z,21.21
2022-09-18T08:33:52.381Z,21.28
2022-09-18T08:36:55.446Z,21.31
2022-09-18T08:40:01.557Z,21.48
2022-09-18T08:43:51.257Z,21.54
2022-09-18T08:46:58.409Z,21.59
2022-09-18T08:50:09.899Z,21.47
2022-09-18T08:53:20.558Z,21.44
2022-09-18T08:56:50.175Z,21.38
2022-09-18T09:00:11.942Z,21.48
2022-09-18T09:03:25.126Z,21.49
2022-09-18T09:06:56.409Z,21.52
2022-09-18T09:10:31.108Z,21.62
2022-09-18T09:13:59.272Z,21.60
2022-09-18T09:17:10.229Z,21.55
2022-09-18T09:20:23.363Z,21.46
2022-09-18T09:24:01.788Z,21.47
2022-09-18T09:27:41.528Z,21.49
2022-09-18T09:30:52.418Z,21.53
2022-09-18T09:34:25.141Z,21.63
2022-09-18T09:37:43.569Z,21.71
2022-09-18T09:40:52.679Z,21.74
2022-09-18T09:44:00.626Z,21.64
2022-09-18T09:47:21.419Z,21.56
2022-09-18T09:50:48.430Z,21.65
2022-09-18T09:53:56.008Z,21.60
2022-09-18T09:57:25.055Z,21.56
2022-09-18T10:00:32.492Z,21.48
2022-09-18T10:04:13.646Z,21.51
2022-09-18T10:07:35.906Z,21.51
2022-09-18T10:10:45.406Z,21.40
2022-09-18T10:13:57.243Z,21.10
2022-09-18T10:17:02.745Z,21.14
2022-09-18T10:20:06.308Z,21.29
2022-09-18T10:23:20.806Z,21.39
2022-09-18T10:26:33.266Z,21.36
2022-09-18T10:29:36.211Z,21.56
2022-09-18T10:32:44.421Z,21.60
2022-09-18T10:36:09.950Z,21.66
2022-09-18T10:39:31.631Z,21.73
2022-09-18T10:42:41.536Z,21.79
2022-09-18T10:45:56.302Z,21.61
2022-09-18T10:49:57.062Z,21.57
2022-09-18T10:53:28.689Z,21.57
2022-09-18T10:56:32.701Z,21.46
2022-09-18T10:59:35.674Z,21.33
2022-09-18T11:03:03.945Z,21.16
2022-09-18T11:06:17.353Z,21.37
2022-09-18T11:09:32.296Z,21.38
2022-09-18T11:12:35.579Z,21.45
2022-09-18T11:15:38.389Z,21.34
2022-09-18T11:18:40.359Z,21.30
2022-09-18T11:21:51.443Z,21.46
2022-09-18T11:25:09.019Z,21.48
2022-09-18T11:28:22.452Z,21.52
2022-09-18T11:31:25.705Z,21.55
2022-09-18T11:34:37.550Z,21.56
2022-09-18T11:37:48.991Z,21.63
2022-09-18T11:40:54.765Z,21.46
2022-09-18T11:44:13.923Z,21.44
2022-09-18T11:47:36.621Z,21.48
2022-09-18T11:50:39.557Z,21.46
2022-09-18T11:53:55.570Z,21.31
2022-09-18T11:57:01.988Z,21.41
2022-09-18T12:00:15.103Z,21.33
2022-09-18T12:03:31.610Z,21.37
2022-09-18T12:06:44.277Z,21.17
2022-09-18T12:09:57.263Z,21.21
2022-09-18T12:13:11.484Z,21.32
2022-09-18T12:16:32.104Z,21.31
2022-09-18T12:19:48.181Z,21.26
2022-09-18T12:23:00.447Z,21.38
2022-09-18T12:26:09.963Z,21.44
2022-09-18T12:29:52.379Z,21.32
2022-09-18T12:33:13.629Z,21.34
2022-09-18T12:36:30.981Z,21.42
2022-09-18T12:40:04.621Z,21.37
2022-09-18T12:43:26.608Z,21.26
2022-09-18T12:46:46.481Z,21.33
2022-09-18T12:50:19.246Z,21.27
2022-09-18T12:53:33.044Z,21.27
2022-09-18T12:56:56.342Z,21.33
2022-09-18T13:00:05.867Z,21.38
2022-09-18T13:03:33.610Z,21.31
2022-09-18T13:06:49.302Z,21.47
2022-09-18T13:10:03.298Z,21.56
2022-09-18T13:13:24.704Z,21.62
2022-09-18T13:16:55.042Z,21.64
2022-09-18T13:20:06.973Z,21.51
2022-09-18T13:23:27.472Z,21.48
2022-09-18T13:26:33.219Z,21.48
2022-09-18T13:29:53.521Z,21.49
2022-09-18T13:32:57.339Z,21.35
2022-09-18T13:35:59.401Z,21.32
2022-09-18T13:39:23.755Z,21.33
2022-09-18T13:42:41.225Z,21.34
2022-09-18T13:45:43.416Z,21.39
2022-09-18T13:48:48.885Z,21.42
2022-09-18T13:51:50.970Z,21.40
2022-09-18T13:55:11.415Z,21.33
2022-09-18T13:58:31.927Z,21.21
2022-09-18T14:01:40.078Z,21.32
2022-09-18T14:04:43.611Z,21.39
2022-09-18T14:07:52.651Z,21.29
2022-09-18T14:11:14.994Z,21.11
2022-09-18T14:14:22.976Z,21.09
2022-09-18T14:17:25.954Z,21.22
2022-09-18T14:20:28.618Z,21.15
2022-09-18T14:23:36.933Z,21.07
2022-09-18T14:26:39.205Z,21.13
2022-09-18T14:29:41.414Z,21.14
2022-09-18T14:33:01.491Z,21.13
2022-09-18T14:36:05.613Z,21.14
2022-09-18T14:39:27.367Z,21.15
2022-09-18T14:42:34.085Z,21.13
2022-09-18T14:45:36.193Z,21.04
2022-09-18T14:48:38.946Z,20.97
2022-09-18T14:52:03.031Z,21.04
2022-09-18T14:55:11.907Z,21.13
2022-09-18T14:58:19.733Z,20.97
2022-09-18T15:01:25.336Z,21.08
2022-09-18T15:04:27.678Z,21.08
2022-09-18T15:07:30.284Z,21.28
2022-09-18T15:10:35.644Z,21.02
2022-09-18T15:13:38.206Z,20.99
2022-09-18T15:16:40.250Z,20.97
2022-09-18T15:20:14.293Z,21.06
2022-09-18T15:23:27.251Z,21.16
2022-09-18T15:26:36.708Z,21.21
2022-09-18T15:29:44.201Z,21.26
2022-09-18T15:33:08.176Z,21.22
2022-09-18T15:36:29.006Z,21.00
2022-09-18T15:39:42.609Z,21.05
2022-09-18T15:42:59.231Z,21.17
2022-09-18T15:46:08.685Z,21.24
2022-09-18T15:49:34.470Z,21.18
2022-09-18T15:52:54.080Z,21.14
2022-09-18T15:56:05.953Z,21.16
2022-09-18T15:59:37.137Z,20.93
2022-09-18T16:02:39.395Z,21.03
2022-09-18T16:05:53.108Z,21.07
2022-09-18T16:08:56.790Z,21.04
2022-09-18T16:11:58.712Z,20.93
2022-09-18T16:15:25.650Z,20.82
2022-09-18T16:18:31.057Z,20.85
2022-09-18T16:21:42.769Z,20.84
2022-09-18T16:24:44.698Z,20.88
2022-09-18T16:27:49.678Z,20.83
2022-09-18T16:30:52.305Z,20.79
2022-09-18T16:34:02.050Z,20.76
2022-09-18T16:37:08.454Z,20.87
2022-09-18T16:40:17.675Z,20.85
2022-09-18T16:43:19.801Z,20.90
2022-09-18T16:46:27.383Z,20.70
2022-09-18T16:49:32.970Z,20.89
2022-09-18T16:52:34.898Z,21.00
2022-09-18T16:55:41.101Z,21.03
2022-09-18T16:58:44.535Z,21.04
2022-09-18T17:02:02.892Z,21.03
2022-09-18T17:05:05.638Z,21.03
2022-09-18T17:08:07.702Z,21.01
2022-09-18T17:11:09.747Z,21.07
2022-09-18T17:14:11.766Z,21.05
2022-09-18T17:17:13.873Z,20.77
2022-09-18T17:20:17.962Z,20.88
2022-09-18T17:23:19.906Z,20.95
2022-09-18T17:26:23.024Z,20.94
2022-09-18T17:29:25.219Z,21.04
2022-09-18T17:32:28.366Z,21.04
2022-09-18T17:35:30.368Z,21.10
2022-09-18T17:38:36.143Z,21.11
2022-09-18T17:41:39.013Z,21.23
2022-09-18T17:44:41.520Z,21.22
2022-09-18T17:47:43.613Z,21.20
2022-09-18T17:50:45.553Z,21.18
2022-09-18T17:53:48.866Z,21.16
2022-09-18T17:56:51.224Z,21.04
2022-09-18T17:59:53.153Z,21.06
2022-09-18T18:02:56.013Z,21.11
2022-09-18T18:05:58.888Z,21.13
2022-09-18T18:09:01.320Z,21.15
2022-09-18T18:12:05.224Z,21.18
2022-09-18T18:15:07.773Z,21.19
2022-09-18T18:18:09.753Z,21.14
2022-09-18T18:21:11.729Z,21.23
2022-09-18T18:24:16.945Z,21.21
2022-09-18T18:27:21.160Z,21.19
2022-09-18T18:30:24.209Z,21.19
2022-09-18T18:33:26.086Z,21.15
2022-09-18T18:36:30.817Z,21.20
2022-09-18T18:39:32.716Z,21.18
2022-09-18T18:42:34.693Z,21.18
2022-09-18T18:45:37.558Z,21.20
2022-09-18T18:48:40.951Z,21.18
2022-09-18T18:51:47.767Z,21.17
2022-09-18T18:54:50.276Z,21.17
2022-09-18T18:57:52.722Z,21.18
2022-09-18T19:00:55.565Z,21.11
2022-09-18T19:04:03.126Z,21.09
2022-09-18T19:07:06.408Z,21.12
2022-09-18T19:10:08.832Z,21.12
2022-09-18T19:13:10.795Z,21.13
2022-09-18T19:16:13.023Z,21.05
2022-09-18T19:19:17.079Z,21.04
2022-09-18T19:22:19.213Z,21.11
2022-09-18T19:25:21.203Z,21.06
2022-09-18T19:28:23.581Z,21.11
2022-09-18T19:31:27.704Z,21.05
2022-09-18T19:34:29.639Z,21.00
2022-09-18T19:37:31.570Z,21.04
2022-09-18T19:40:37.092Z,21.03
2022-09-18T19:43:40.157Z,21.01
2022-09-18T19:46:42.148Z,20.93
2022-09-18T19:49:44.276Z,21.00
2022-09-18T19:52:50.739Z,20.94
2022-09-18T19:55:53.272Z,20.99
2022-09-18T19:58:55.258Z,21.02
2022-09-18T20:01:57.561Z,20.97
2022-09-18T20:04:59.994Z,20.82
2022-09-18T20:08:02.215Z,20.97
2022-09-18T20:11:04.676Z,20.97
2022-09-18T20:14:06.713Z,21.01
2022-09-18T20:17:10.036Z,21.03
2022-09-18T20:20:16.315Z,21.01
2022-09-18T20:23:18.668Z,20.46
2022-09-18T20:26:20.614Z,21.01
2022-09-18T20:29:22.628Z,20.98
2022-09-18T20:32:24.753Z,20.92
2022-09-18T20:35:27.038Z,21.02
2022-09-18T20:38:38.495Z,20.80
2022-09-18T20:41:40.718Z,20.95
2022-09-18T20:44:42.742Z,20.94
2022-09-18T20:47:44.795Z,20.97
2022-09-18T20:50:47.170Z,20.98
2022-09-18T20:53:49.160Z,20.94
2022-09-18T20:56:51.104Z,20.98
2022-09-18T20:59:53.845Z,20.99
2022-09-18T21:02:55.874Z,20.97
2022-09-18T21:06:21.060Z,20.99
2022-09-18T21:09:27.489Z,20.98
2022-09-18T21:12:38.313Z,20.99
2022-09-18T21:15:46.111Z,20.80
2022-09-18T21:18:53.532Z,20.93
2022-09-18T21:21:55.526Z,20.93
2022-09-18T21:25:00.496Z,20.88
2022-09-18T21:28:05.988Z,20.96
2022-09-18T21:31:11.971Z,20.92
2022-09-18T21:34:26.698Z,20.93
2022-09-18T21:37:28.792Z,20.90
2022-09-18T21:40:31.889Z,20.91
2022-09-18T21:43:34.393Z,20.90
2022-09-18T21:46:38.497Z,20.86
2022-09-18T21:49:40.617Z,20.88
2022-09-18T21:52:45.724Z,20.89
2022-09-18T21:55:47.840Z,20.92
2022-09-18T21:58:50.284Z,20.92
2022-09-18T22:01:55.320Z,20.90
2022-09-18T22:04:57.980Z,20.90
2022-09-18T22:07:59.967Z,20.89
2022-09-18T22:11:03.541Z,20.90
2022-09-18T22:14:10.507Z,20.87
2022-09-18T22:17:12.524Z,20.87
2022-09-18T22:20:14.604Z,20.87
2022-09-18T22:23:16.598Z,20.88
2022-09-18T22:26:20.389Z,20.83
2022-09-18T22:29:25.332Z,20.85
2022-09-18T22:32:27.314Z,20.84
2022-09-18T22:35:29.260Z,20.79
2022-09-18T22:38:31.709Z,20.84
2022-09-18T22:41:37.283Z,20.84
2022-09-18T22:44:39.218Z,20.82
2022-09-18T22:47:41.608Z,20.76
2022-09-18T22:50:44.211Z,20.79
2022-09-18T22:53:51.627Z,20.77
2022-09-18T22:56:55.270Z,20.84
2022-09-18T22:59:57.265Z,20.76
2022-09-18T23:02:59.155Z,20.78
2022-09-18T23:06:01.759Z,20.76
2022-09-18T23:09:04.767Z,20.79
2022-09-18T23:12:07.103Z,20.78
2022-09-18T23:15:09.477Z,20.78
2022-09-18T23:18:11.923Z,20.78
2022-09-18T23:21:14.049Z,20.77
2022-09-18T23:24:16.730Z,20.74
2022-09-18T23:27:18.623Z,20.76
2022-09-18T23:30:21.276Z,20.55
2022-09-18T23:33:23.304Z,20.68
2022-09-18T23:36:31.607Z,20.71
2022-09-18T23:39:34.484Z,20.73
2022-09-18T23:42:36.806Z,20.75
2022-09-18T23:45:38.701Z,20.73
2022-09-18T23:48:41.147Z,20.73
2022-09-18T23:51:48.443Z,20.72
2022-09-18T23:54:50.403Z,20.76
2022-09-18T23:57:52.377Z,20.75
